Latest Coastal Weather Observations for Port Hedland

IDW60701

Issued at 6:53 pm WST Thursday 19 January 2017 (issued every 10 minutes, with the page automatically refreshed every 10 minutes)

About coastal observations | Map of coastal stations | Coastal observations for WA | Marine services | Other Formats
Station Details ID: 004032 Name: PORT HEDLAND AIRPORT Lat: -20.37 Lon: 118.63 Height: 6.4 m
Data from the previous 72 hours. | See also: Recent months at Port Hedland
Date/Time
WST
Temp
°C
Wind Pressure Rain since
9am
mm
Weather Cloud Vis
km
Sea
Height
m
Swell
Dir  Spd
kts
Gust
kts
hPa Trend Height
m
Period
s
Dir
19/06:30pm 28.5 WNW 19 23 1002.5 - 0.0 - - 10 - - - -
19/06:00pm 29.3 NW 18 22 1001.9 - 0.0 - - 10 - - - -
19/05:30pm 29.4 WNW 19 23 1001.8 - 0.0 - - 10 - - - -
19/05:00pm 29.7 WNW 20 24 1001.6 - 0.0 - - 10 - - - -
19/04:30pm 29.9 WNW 19 22 1001.7 - 0.0 - - 10 - - - -
19/04:00pm 30.0 WNW 20 24 1001.9 - 0.0 - - 10 - - - -
19/03:30pm 29.5 WNW 20 25 1002.4 - 0.0 - - 10 - - - -
19/03:00pm 30.4 NW 21 24 1002.6 - 0.0 - Mostly clear 10 - - - -
19/02:30pm 31.8 NW 19 25 1002.9 - 0.0 - - 10 - - - -
19/02:00pm 32.5 NW 18 23 1003.1 - 0.0 - Mostly clear 10 - - - -
19/01:30pm 32.8 NW 18 22 1003.5 - 0.0 - Mostly clear 10 - - - -
19/01:00pm 32.8 NW 19 24 1003.9 - 0.0 - Mostly clear 10 - - - -
19/12:30pm 33.6 NW 19 24 1004.3 - 0.0 - Mostly clear 10 - - - -
19/12:00pm 33.3 WNW 18 22 1004.5 - 0.0 - Mostly clear 10 - - - -
19/11:30am 33.3 NW 18 22 1004.8 - 0.0 - - 10 - - - -
19/11:00am 33.4 NW 19 24 1005.0 - 0.0 - - 10 - - - -
19/10:30am 33.2 NW 16 20 1005.3 - 0.0 - - 10 - - - -
19/10:00am 32.5 NW 16 19 1005.6 - 0.0 - Mostly clear 10 - - - -
19/09:30am 32.6 NW 13 17 1005.6 - 0.0 - Mostly clear 10 - - - -
19/09:00am 31.4 WNW 8 11 1005.8 F 0.0 Fine Mostly cloudy 30 - - - -
19/08:30am 30.1 WNW 12 16 1005.9 - 0.0 - Mostly clear 10 - - - -
19/08:00am 29.4 WNW 12 15 1005.9 - 0.0 - Partly cloudy 10 - - - -
19/07:30am 29.1 WNW 14 17 1005.8 - 0.0 - Partly cloudy 10 - - - -
19/07:00am 28.7 WNW 13 16 1005.9 - 0.0 - Mostly clear 10 - - - -
19/06:30am 28.4 WNW 10 13 1005.8 - 0.0 - Mostly clear 10 - - - -
19/06:00am 27.8 WNW 10 13 1005.2 - 0.0 - Mostly clear 10 - - - -
19/05:30am 27.7 WNW 9 12 1005.3 - 0.0 - Partly cloudy 10 - - - -
19/05:00am 27.6 WNW 9 12 1005.2 - 0.0 - Partly cloudy 10 - - - -
19/04:30am 27.6 WNW 9 12 1004.7 - 0.0 - Partly cloudy 10 - - - -
19/04:00am 27.7 W 8 11 1005.0 - 0.0 - Partly cloudy 10 - - - -
19/03:30am 27.7 WNW 10 13 1004.3 - 0.0 - Partly cloudy 10 - - - -
19/03:00am 27.7 WNW 11 15 1003.9 - 0.0 - Mostly clear 10 - - - -
19/02:30am 27.7 NW 12 16 1004.1 - 0.0 - Partly cloudy 10 - - - -
19/02:00am 28.0 WNW 9 11 1004.7 - 0.0 - Partly cloudy 10 - - - -
19/01:30am 27.2 WSW 3 4 1004.9 - 0.0 - Partly cloudy 10 - - - -
19/01:00am 27.0 NW 4 5 1005.2 - 0.0 - - 10 - - - -
19/12:30am 26.9 NW 5 6 1005.7 - 0.0 - - 10 - - - -
19/12:00am 26.8 W 5 6 1006.1 - 0.0 - - 10 - - - -
 
Date/Time
WST
Temp
°C
Wind Pressure Rain since
9am
mm
Weather Cloud Vis
km
Sea
Height
m
Swell
Dir  Spd
kts
Gust
kts
hPa Trend Height
m
Period
s
Dir
18/11:30pm 27.0 WSW 6 8 1006.8 - 0.0 - - 10 - - - -
18/11:00pm 27.1 W 7 9 1007.1 - 0.0 - - 10 - - - -
18/10:30pm 27.2 WSW 7 9 1007.3 - 0.0 - - 10 - - - -
18/10:00pm 27.4 WSW 10 13 1008.0 - 0.0 - Cloudy 10 - - - -
18/09:30pm 28.2 WSW 12 16 1008.0 - 0.0 - Partly cloudy 10 - - - -
18/09:00pm 28.5 W 12 14 1007.8 - 0.0 - Partly cloudy 10 - - - -
18/08:30pm 28.5 W 11 14 1007.7 - 0.0 - Partly cloudy 10 - - - -
18/08:00pm 28.6 W 9 11 1007.3 - 0.0 - Partly cloudy 10 - - - -
18/07:30pm 28.5 W 11 14 1006.9 - 0.0 - - 10 - - - -
18/07:00pm 28.7 WNW 12 15 1006.2 - 0.0 - - 10 - - - -
18/06:30pm 28.9 WNW 15 19 1005.7 - 0.0 - - 10 - - - -
18/06:00pm 29.6 WNW 14 18 1005.2 - 0.0 - Mostly clear 10 - - - -
18/05:30pm 30.1 NW 16 19 1004.5 - 0.0 - Partly cloudy 10 - - - -
18/05:00pm 30.6 WNW 16 21 1004.3 - 0.0 - - 10 - - - -
18/04:30pm 30.6 WNW 17 22 1003.9 - 0.0 - Partly cloudy 10 - - - -
18/04:00pm 32.1 WNW 16 20 1003.8 - 0.0 - - 10 - - - -
18/03:30pm 31.7 WNW 16 21 1004.1 - 0.0 - - 10 - - - -
18/03:00pm 32.5 WNW 16 21 1004.1 - 0.0 - - 10 - - - -
18/02:30pm 31.6 NW 18 23 1004.4 - 0.0 - - 10 - - - -
18/02:00pm 32.2 NW 17 20 1004.7 - 0.0 - - 10 - - - -
18/01:30pm 32.4 NNW 16 22 1005.2 - 0.0 - - 10 - - - -
18/01:00pm 32.5 NW 15 19 1005.8 - 0.0 - Partly cloudy 10 - - - -
18/12:30pm 32.0 NW 15 19 1006.1 - 0.0 - Partly cloudy 10 - - - -
18/12:00pm 31.9 NW 14 19 1006.3 - 0.0 - Partly cloudy 10 - - - -
18/11:30am 32.3 NW 16 19 1006.4 - 0.0 - Partly cloudy 10 - - - -
18/11:00am 33.1 NW 14 19 1006.6 - 0.0 - Partly cloudy 10 - - - -
18/10:30am 32.0 NW 14 18 1006.9 - 0.0 - Partly cloudy 10 - - - -
18/10:00am 31.6 NW 13 17 1007.3 - 0.0 - Partly cloudy 10 - - - -
18/09:30am 30.3 NW 11 15 1007.4 - 0.0 - Partly cloudy 10 - - - -
18/09:00am 29.6 WNW 12 15 1007.5 R 0.0 Fine Mostly cloudy 20 - - - -
18/08:30am 29.5 W 9 12 1007.4 - 0.0 - Mostly clear 10 - - - -
18/08:00am 29.2 WSW 8 12 1007.2 - 0.0 - Mostly clear 10 - - - -
18/07:30am 28.5 WSW 7 9 1007.3 - 0.0 - Mostly clear 10 - - - -
18/07:00am 28.0 SW 6 7 1007.2 - 0.0 - Partly cloudy 10 - - - -
18/06:30am 27.6 WSW 7 9 1006.8 - 0.0 - Partly cloudy 10 - - - -
18/06:00am 27.4 W 8 10 1006.4 - 0.0 - Mostly clear 10 - - - -
18/05:30am 27.5 W 10 13 1006.2 - 0.0 - Partly cloudy 10 - - - -
18/05:00am 27.7 W 9 12 1006.3 - 0.0 - Cloudy 10 - - - -
18/04:30am 27.4 W 7 9 1006.4 - 0.0 - Partly cloudy 10 - - - -
18/04:00am 27.4 W 9 11 1006.1 - 0.0 - Partly cloudy 10 - - - -
18/03:30am 27.6 W 11 14 1006.1 - 0.0 - Partly cloudy 10 - - - -
18/03:00am 27.6 W 11 14 1006.0 - 0.0 - Partly cloudy 10 - - - -
18/02:30am 27.6 W 12 16 1006.0 - 0.0 - - 10 - - - -
18/02:00am 27.8 W 12 16 1006.0 - 0.0 - - 10 - - - -
18/01:30am 27.8 W 12 15 1006.2 - 0.0 - - 10 - - - -
18/01:00am 28.0 W 12 16 1006.5 - 0.0 - - 10 - - - -
18/12:30am 28.1 W 14 16 1006.3 - 0.0 - - 10 - - - -
18/12:00am 28.3 W 12 16 1006.5 - 0.0 - Mostly clear 10 - - - -
 
Date/Time
WST
Temp
°C
Wind Pressure Rain since
9am
mm
Weather Cloud Vis
km
Sea
Height
m
Swell
Dir  Spd
kts
Gust
kts
hPa Trend Height
m
Period
s
Dir
17/11:30pm 28.5 W 11 16 1007.0 - 0.0 - Partly cloudy 10 - - - -
17/11:00pm 28.5 W 9 13 1007.2 - 0.0 - Partly cloudy 10 - - - -
17/10:30pm 28.5 WNW 11 16 1007.1 - 0.0 - Partly cloudy 10 - - - -
17/10:00pm 28.5 WNW 12 16 1006.9 - 0.0 - - 10 - - - -
17/09:30pm 28.4 NW 11 14 1006.8 - 0.0 - - 10 - - - -
17/09:00pm 28.5 WNW 11 14 1006.3 - 0.0 - - 10 - - - -
17/08:30pm 28.6 WNW 11 14 1006.0 - 0.0 - - 10 - - - -
17/08:00pm 28.7 WNW 11 15 1005.8 - 0.0 - - 10 - - - -
17/07:30pm 28.8 WNW 13 16 1005.5 - 0.0 - - 10 - - - -
17/07:00pm 29.0 WNW 12 15 1005.0 - 0.0 - - 10 - - - -
17/06:30pm 29.1 WNW 14 18 1004.7 - 0.0 - - 10 - - - -
17/06:00pm 29.5 NW 16 18 1004.3 - 0.0 - - 10 - - - -
17/05:30pm 29.9 NW 15 18 1004.1 - 0.0 - - 10 - - - -
17/05:00pm 30.2 NW 16 19 1003.9 - 0.0 - - 10 - - - -
17/04:30pm 31.0 NW 16 19 1003.8 - 0.0 - - 10 - - - -
17/04:00pm 31.5 NW 17 20 1003.6 - 0.0 - - 10 - - - -
17/03:30pm 32.2 NW 17 22 1003.8 - 0.0 - - 10 - - - -
17/03:00pm 32.3 NW 16 21 1004.1 - 0.0 - Mostly clear 10 - - - -
17/02:30pm 32.4 NW 17 21 1004.5 - 0.0 - Mostly clear 10 - - - -
17/02:00pm 32.4 NW 17 21 1004.9 - 0.0 - Mostly clear 10 - - - -
17/01:30pm 32.8 NNW 15 19 1005.1 - 0.0 - Mostly clear 10 - - - -
17/01:00pm 33.0 NW 14 17 1005.2 - 0.0 - Mostly clear 10 - - - -
17/12:30pm 33.4 NNW 14 17 1005.4 - 0.0 - Mostly clear 10 - - - -
17/12:00pm 33.3 NW 13 19 1005.4 - 0.0 - Mostly clear 10 - - - -
17/11:30am 33.4 NW 14 18 1005.7 - 0.0 - - 10 - - - -
17/11:00am 32.3 WNW 11 17 1006.0 - 0.0 - Partly cloudy 10 - - - -
17/10:30am 32.5 NNW 11 15 1006.2 - 0.0 - Partly cloudy 10 - - - -
17/10:00am 31.5 WNW 9 14 1006.4 - 0.0 - Partly cloudy 10 - - - -
17/09:30am 31.3 WNW 9 15 1006.5 - 0.0 - Partly cloudy 10 - - - -
17/09:00am 30.3 WSW 8 11 1006.3 F 0.2 Fine Mostly cloudy 30 - - - -
17/08:30am 30.1 WSW 10 12 1006.4 - 0.0 - Mostly clear 10 - - - -
17/08:00am 29.5 W 10 13 1006.2 - 0.2 - Partly cloudy 10 - - - -
17/07:30am 29.7 WSW 11 15 1006.5 - 0.0 - Partly cloudy 10 - - - -
17/07:00am 28.5 WSW 9 13 1006.8 - 0.0 - Partly cloudy 10 - - - -
17/06:30am 27.5 WSW 7 9 1006.7 - 0.0 - Partly cloudy 10 - - - -
17/06:00am 27.0 WSW 8 9 1006.1 - 0.0 - Mostly clear 10 - - - -
17/05:30am 26.9 WSW 7 8 1005.7 - 0.2 - - 10 - - - -
17/05:00am 27.1 WSW 6 7 1005.3 - 0.2 - - 10 - - - -
17/04:30am 27.4 WSW 7 9 1005.0 - 0.2 - Partly cloudy 10 - - - -
17/04:00am 27.6 WSW 8 9 1004.8 - 0.2 - Partly cloudy 10 - - - -
17/03:30am 27.5 WSW 8 9 1004.9 - 0.2 - Partly cloudy 10 - - - -
17/03:00am 27.7 WSW 7 9 1004.7 - 0.2 - - 10 - - - -
17/02:30am 28.0 WSW 9 11 1005.0 - 0.2 - Partly cloudy 10 - - - -
17/02:00am 28.1 WSW 9 11 1005.2 - 0.2 - Partly cloudy 10 - - - -
17/01:30am 28.3 W 8 10 1005.0 - 0.2 - Partly cloudy 10 - - - -
17/01:00am 28.4 W 9 11 1005.2 - 0.2 - Partly cloudy 10 - - - -
17/12:30am 28.4 W 8 11 1005.3 - 0.2 - Partly cloudy 10 - - - -
17/12:00am 28.5 W 9 12 1005.5 - 0.2 - Mostly clear 10 - - - -
 
Date/Time
WST
Temp
°C
Wind Pressure Rain since
9am
mm
Weather Cloud Vis
km
Sea
Height
m
Swell
Dir  Spd
kts
Gust
kts
hPa Trend Height
m
Period
s
Dir
16/11:30pm 28.8 W 8 11 1006.2 - 0.2 - Partly cloudy 10 - - - -
16/11:00pm 28.8 WNW 7 8 1006.6 - 0.2 - - 10 - - - -
16/10:30pm 28.9 WNW 6 7 1006.9 - 0.2 - Partly cloudy 10 - - - -
16/10:00pm 29.0 WNW 6 7 1006.6 - 0.2 - - 10 - - - -
16/09:30pm 29.1 WNW 7 9 1006.3 - 0.2 - Partly cloudy 10 - - - -
16/09:00pm 29.2 WNW 6 8 1005.9 - 0.2 - Mostly clear 10 - - - -
16/08:30pm 29.5 NNW 7 8 1005.8 - 0.2 - Partly cloudy 10 - - - -
16/08:00pm 29.6 NNW 7 8 1005.7 - 0.2 - Partly cloudy 10 - - - -
16/07:30pm 29.7 NNW 8 10 1005.4 - 0.2 - - 10 - - - -
16/07:00pm 29.9 NNW 9 11 1005.0 - 0.2 - - 10 - - - -

Other Formats:

Comma delimited format used in spreadsheet applications
http://www.bom.gov.au/fwo/IDW60701/IDW60701.94312.axf

JavaScript Object Notation format (JSON) in row-major order
http://www.bom.gov.au/fwo/IDW60701/IDW60701.94312.json